createdAt,value
2022-07-29T00:01:54.619Z,6.13
2022-07-29T00:04:22.524Z,6.18
2022-07-29T00:06:50.307Z,6.40
2022-07-29T00:09:20.517Z,6.55
2022-07-29T00:11:48.482Z,6.32
2022-07-29T00:14:16.665Z,6.40
2022-07-29T00:16:45.286Z,6.30
2022-07-29T00:19:12.832Z,6.32
2022-07-29T00:21:40.787Z,6.50
2022-07-29T00:24:08.765Z,6.82
2022-07-29T00:26:36.173Z,6.97
2022-07-29T00:29:32.868Z,6.40
2022-07-29T00:31:53.410Z,6.72
2022-07-29T00:34:40.191Z,6.60
2022-07-29T00:43:36.955Z,6.50
2022-07-29T00:46:05.260Z,6.22
2022-07-29T00:48:32.782Z,6.43
2022-07-29T00:51:04.077Z,6.00
2022-07-29T00:53:34.654Z,6.80
2022-07-29T00:56:03.928Z,6.72
2022-07-29T00:58:34.151Z,6.38
2022-07-29T01:01:02.245Z,6.53
2022-07-29T01:03:29.882Z,6.72
2022-07-29T01:05:57.543Z,6.22
2022-07-29T01:08:26.039Z,7.05
2022-07-29T01:10:55.068Z,6.43
2022-07-29T01:13:24.592Z,6.47
2022-07-29T01:16:01.221Z,6.05
2022-07-29T01:18:48.252Z,6.57
2022-07-29T01:21:57.965Z,6.63
2022-07-29T01:25:11.357Z,6.93
2022-07-29T01:28:19.172Z,6.57
2022-07-29T01:30:59.727Z,6.43
2022-07-29T01:33:54.893Z,7.15
2022-07-29T01:36:41.880Z,6.50
2022-07-29T01:42:56.343Z,6.47
2022-07-29T01:46:02.255Z,6.60
2022-07-29T01:48:59.303Z,6.03
2022-07-29T01:51:36.447Z,6.80
2022-07-29T01:54:47.184Z,6.82
2022-07-29T01:57:20.537Z,6.60
2022-07-29T01:59:51.049Z,6.57
2022-07-29T02:02:20.757Z,6.53
2022-07-29T02:07:33.704Z,7.07
2022-07-29T02:13:01.323Z,6.38
2022-07-29T02:37:21.095Z,7.13
2022-07-29T03:15:49.599Z,6.75
2022-07-29T03:18:17.565Z,6.55
2022-07-29T03:20:45.253Z,6.88
2022-07-29T03:23:12.885Z,6.80
2022-07-29T03:25:40.689Z,6.63
2022-07-29T03:28:08.218Z,6.95
2022-07-29T03:30:35.702Z,6.75
2022-07-29T03:33:02.974Z,7.03
2022-07-29T03:38:35.852Z,6.78
2022-07-29T03:41:10.572Z,6.65
2022-07-29T03:43:49.079Z,6.55
2022-07-29T03:46:19.518Z,6.60
2022-07-29T03:48:54.089Z,6.95
2022-07-29T03:51:34.010Z,6.65
2022-07-29T03:54:09.331Z,6.80
2022-07-29T03:56:49.633Z,6.53
2022-07-29T03:59:20.897Z,6.30
2022-07-29T04:01:49.626Z,5.95
2022-07-29T04:04:17.829Z,6.43
2022-07-29T04:06:48.320Z,6.70
2022-07-29T04:09:16.332Z,7.00
2022-07-29T04:12:02.104Z,6.55
2022-07-29T04:14:33.256Z,6.85
2022-07-29T04:17:02.059Z,6.75
2022-07-29T04:19:29.681Z,6.40
2022-07-29T04:21:57.506Z,6.57
2022-07-29T04:24:24.901Z,6.60
2022-07-29T04:26:52.306Z,6.75
2022-07-29T04:29:19.747Z,6.97
2022-07-29T04:31:47.293Z,6.60
2022-07-29T04:34:16.196Z,7.10
2022-07-29T04:36:43.818Z,6.90
2022-07-29T04:39:11.418Z,6.80
2022-07-29T04:41:38.834Z,7.00
2022-07-29T04:44:07.046Z,6.30
2022-07-29T04:46:35.887Z,6.40
2022-07-29T04:49:04.609Z,6.80
2022-07-29T04:51:32.661Z,6.82
2022-07-29T04:54:00.117Z,6.82
2022-07-29T04:56:27.914Z,6.30
2022-07-29T04:58:55.674Z,6.75
2022-07-29T05:01:23.173Z,6.45
2022-07-29T05:03:50.732Z,6.75
2022-07-29T05:06:18.095Z,6.30
2022-07-29T05:08:45.613Z,6.60
2022-07-29T05:11:15.863Z,6.70
2022-07-29T05:13:47.087Z,6.63
2022-07-29T05:16:15.572Z,6.30
2022-07-29T05:18:43.397Z,6.40
2022-07-29T05:21:10.963Z,6.90
2022-07-29T05:23:38.418Z,6.43
2022-07-29T05:26:05.813Z,6.30
2022-07-29T05:28:36.427Z,6.93
2022-07-29T05:31:04.267Z,6.45
2022-07-29T05:33:34.625Z,7.00
2022-07-29T05:36:08.452Z,6.57
2022-07-29T05:38:37.162Z,6.60
2022-07-29T05:41:06.294Z,6.55
2022-07-29T05:43:34.899Z,6.32
2022-07-29T05:46:03.559Z,6.85
2022-07-29T05:48:30.924Z,6.65
2022-07-29T05:50:59.249Z,6.32
2022-07-29T05:53:26.782Z,6.40
2022-07-29T05:55:54.473Z,6.70
2022-07-29T05:58:22.705Z,6.70
2022-07-29T06:00:51.219Z,6.70
2022-07-29T06:03:19.305Z,6.70
2022-07-29T06:05:46.991Z,6.47
2022-07-29T06:08:15.361Z,6.55
2022-07-29T06:10:42.919Z,5.85
2022-07-29T06:13:10.776Z,5.93
2022-07-29T06:15:43.055Z,6.80
2022-07-29T06:18:11.394Z,6.60
2022-07-29T06:20:39.246Z,6.63
2022-07-29T06:23:07.204Z,6.28
2022-07-29T06:25:37.213Z,6.32
2022-07-29T06:28:05.706Z,6.45
2022-07-29T06:30:34.647Z,5.82
2022-07-29T06:33:03.282Z,6.60
2022-07-29T06:35:37.524Z,6.32
2022-07-29T06:38:12.068Z,5.88
2022-07-29T06:41:01.484Z,6.03
2022-07-29T06:43:50.557Z,6.20
2022-07-29T06:46:20.989Z,6.30
2022-07-29T06:48:50.299Z,5.82
2022-07-29T06:51:22.367Z,5.60
2022-07-29T06:54:01.653Z,6.00
2022-07-29T06:56:39.004Z,5.82
2022-07-29T06:59:09.398Z,5.90
2022-07-29T07:01:45.083Z,6.38
2022-07-29T07:04:13.288Z,5.85
2022-07-29T07:06:41.409Z,5.60
2022-07-29T07:09:09.112Z,6.13
2022-07-29T07:11:36.751Z,6.00
2022-07-29T07:14:04.578Z,5.80
2022-07-29T07:16:33.410Z,5.70
2022-07-29T07:19:01.726Z,5.47
2022-07-29T07:21:30.707Z,5.72
2022-07-29T07:23:59.645Z,5.88
2022-07-29T07:26:28.199Z,5.93
2022-07-29T07:28:55.774Z,5.30
2022-07-29T07:31:23.663Z,5.90
2022-07-29T07:33:51.059Z,5.45
2022-07-29T07:36:18.562Z,5.82
2022-07-29T07:38:46.155Z,5.55
2022-07-29T07:41:13.815Z,5.63
2022-07-29T07:43:41.613Z,5.57
2022-07-29T07:46:09.287Z,5.20
2022-07-29T07:48:37.269Z,5.60
2022-07-29T07:51:04.832Z,5.18
2022-07-29T07:53:32.462Z,5.43
2022-07-29T07:56:15.484Z,5.07
2022-07-29T07:58:43.336Z,5.40
2022-07-29T08:01:11.586Z,5.10
2022-07-29T08:03:40.058Z,5.05
2022-07-29T08:06:08.203Z,5.65
2022-07-29T08:08:35.718Z,5.05
2022-07-29T08:11:09.046Z,5.07
2022-07-29T08:13:38.889Z,5.28
2022-07-29T08:16:14.219Z,5.28
2022-07-29T08:18:45.115Z,4.85
2022-07-29T08:21:14.919Z,5.05
2022-07-29T08:23:52.765Z,5.20
2022-07-29T08:26:25.625Z,5.25
2022-07-29T08:28:53.584Z,5.10
2022-07-29T08:31:21.634Z,5.07
2022-07-29T08:33:49.473Z,5.03
2022-07-29T08:36:17.381Z,4.85
2022-07-29T08:38:45.010Z,4.78
2022-07-29T08:41:13.581Z,5.28
2022-07-29T08:43:42.962Z,4.97
2022-07-29T08:46:10.948Z,4.82
2022-07-29T08:48:39.579Z,4.70
2022-07-29T08:51:10.901Z,4.65
2022-07-29T08:53:39.313Z,4.50
2022-07-29T08:56:09.117Z,4.95
2022-07-29T08:58:38.345Z,4.55
2022-07-29T09:01:07.533Z,5.20
2022-07-29T09:03:43.005Z,4.15
2022-07-29T09:06:13.111Z,4.20
2022-07-29T09:08:41.996Z,4.55
2022-07-29T09:11:12.651Z,4.60
2022-07-29T09:13:43.006Z,4.53
2022-07-29T09:16:11.957Z,4.35
2022-07-29T09:18:43.220Z,4.63
2022-07-29T09:21:36.068Z,4.22
2022-07-29T09:24:11.566Z,4.30
2022-07-29T09:26:43.417Z,4.30
2022-07-29T09:29:17.443Z,4.25
2022-07-29T09:31:52.037Z,4.10
2022-07-29T09:34:33.815Z,4.30
2022-07-29T09:37:01.541Z,4.00
2022-07-29T09:39:47.335Z,3.92
2022-07-29T09:42:16.835Z,4.07
2022-07-29T09:44:49.694Z,4.28
2022-07-29T09:47:19.925Z,4.20
2022-07-29T09:49:59.292Z,3.90
2022-07-29T09:52:33.826Z,4.30
2022-07-29T09:55:10.488Z,4.10
2022-07-29T09:57:47.650Z,4.30
2022-07-29T10:00:21.353Z,4.50
2022-07-29T10:02:50.790Z,4.45
2022-07-29T10:05:36.755Z,4.40
2022-07-29T10:08:06.344Z,4.10
2022-07-29T10:10:40.311Z,4.38
2022-07-29T10:13:16.110Z,4.50
2022-07-29T10:15:47.980Z,4.20
2022-07-29T10:18:18.627Z,4.43
2022-07-29T10:20:49.424Z,4.38
2022-07-29T10:23:17.272Z,4.43
2022-07-29T10:25:46.829Z,4.22
2022-07-29T10:28:16.812Z,4.50
2022-07-29T10:30:48.272Z,4.32
2022-07-29T10:33:38.963Z,4.47
2022-07-29T10:36:21.471Z,4.30
2022-07-29T10:39:13.189Z,4.57
2022-07-29T10:44:40.972Z,4.53
2022-07-29T10:47:10.787Z,4.20
2022-07-29T10:49:41.206Z,4.75
2022-07-29T10:52:11.741Z,4.70
2022-07-29T10:54:44.224Z,4.50
2022-07-29T10:57:18.029Z,4.75
2022-07-29T10:59:48.838Z,4.50
2022-07-29T11:02:40.989Z,4.72
2022-07-29T11:05:20.613Z,4.32
2022-07-29T11:08:20.188Z,4.35
2022-07-29T11:10:50.745Z,4.57
2022-07-29T11:13:49.378Z,4.40
2022-07-29T11:16:20.209Z,4.57
2022-07-29T11:19:30.075Z,4.38
2022-07-29T11:21:59.226Z,4.50
2022-07-29T11:24:35.675Z,4.40
2022-07-29T11:27:21.247Z,4.50
2022-07-29T11:29:54.382Z,4.80
2022-07-29T11:32:25.560Z,4.53
2022-07-29T11:35:38.101Z,4.40
2022-07-29T11:38:32.026Z,4.28
2022-07-29T11:41:25.590Z,4.68
2022-07-29T11:44:00.612Z,4.50
2022-07-29T11:46:53.865Z,4.35
2022-07-29T11:52:15.293Z,4.50
2022-07-29T11:57:37.601Z,4.88
2022-07-29T12:00:12.443Z,4.95
2022-07-29T12:02:48.059Z,4.93
2022-07-29T12:05:35.849Z,4.43
2022-07-29T12:07:02.300Z,4.78
2022-07-29T12:08:20.890Z,4.40
2022-07-29T12:10:50.901Z,4.90
2022-07-29T12:13:37.441Z,4.80
2022-07-29T12:16:06.141Z,4.43
2022-07-29T12:18:34.048Z,4.88
2022-07-29T12:21:07.103Z,4.57
2022-07-29T12:23:35.595Z,4.55
2022-07-29T12:26:11.134Z,4.60
2022-07-29T12:28:51.550Z,4.80
2022-07-29T12:31:43.848Z,4.60
2022-07-29T12:34:07.312Z,4.03
2022-07-29T12:36:34.959Z,4.60
2022-07-29T12:39:02.923Z,4.53
2022-07-29T12:41:31.865Z,4.28
2022-07-29T12:43:59.554Z,5.07
2022-07-29T12:46:28.425Z,4.30
2022-07-29T12:48:57.884Z,4.47
2022-07-29T12:51:34.298Z,4.13
2022-07-29T12:54:16.829Z,4.80
2022-07-29T12:56:46.868Z,4.30
2022-07-29T12:59:19.562Z,4.03
2022-07-29T13:01:51.469Z,4.20
2022-07-29T13:04:37.950Z,4.10
2022-07-29T13:07:10.524Z,4.40
2022-07-29T13:09:47.666Z,4.30
2022-07-29T13:12:17.240Z,4.53
2022-07-29T13:14:51.731Z,4.60
2022-07-29T13:17:32.814Z,4.65
2022-07-29T13:20:13.586Z,4.40
2022-07-29T13:22:43.493Z,4.32
2022-07-29T13:25:12.631Z,4.15
2022-07-29T13:27:42.099Z,4.20
2022-07-29T13:30:12.005Z,4.28
2022-07-29T13:32:40.965Z,4.00
2022-07-29T13:35:11.256Z,4.45
2022-07-29T13:37:42.298Z,4.07
2022-07-29T13:40:13.780Z,4.70
2022-07-29T13:43:01.097Z,4.15
2022-07-29T13:45:29.395Z,4.22
2022-07-29T13:47:57.206Z,4.40
2022-07-29T13:50:24.953Z,5.30
2022-07-29T13:52:55.241Z,4.38
2022-07-29T13:55:22.932Z,4.75
2022-07-29T13:57:58.161Z,4.78
2022-07-29T14:00:27.334Z,4.22
2022-07-29T14:02:55.711Z,4.53
2022-07-29T14:05:25.628Z,4.55
2022-07-29T14:07:59.169Z,4.25
2022-07-29T14:10:28.835Z,4.13
2022-07-29T14:12:56.534Z,4.07
2022-07-29T14:15:26.070Z,4.47
2022-07-29T14:17:56.330Z,4.47
2022-07-29T14:20:25.575Z,4.45
2022-07-29T14:22:53.570Z,4.38
2022-07-29T14:25:25.055Z,4.47
2022-07-29T14:30:24.577Z,4.30
2022-07-29T14:32:53.467Z,4.30
2022-07-29T14:35:29.555Z,4.40
2022-07-29T14:38:03.360Z,4.50
2022-07-29T14:40:38.053Z,4.40
2022-07-29T14:43:07.428Z,4.50
2022-07-29T14:45:36.310Z,4.13
2022-07-29T14:48:04.888Z,4.18
2022-07-29T14:50:33.736Z,4.00
2022-07-29T14:53:18.498Z,4.50
2022-07-29T14:55:47.382Z,4.60
2022-07-29T14:58:51.687Z,4.40
2022-07-29T15:01:22.018Z,4.78
2022-07-29T15:04:10.716Z,4.78
2022-07-29T15:06:56.370Z,4.72
2022-07-29T15:09:32.590Z,4.50
2022-07-29T15:15:03.550Z,4.55
2022-07-29T15:17:34.511Z,5.05
2022-07-29T15:20:06.582Z,4.43
2022-07-29T15:22:36.185Z,4.70
2022-07-29T15:25:17.817Z,4.60
2022-07-29T15:27:49.714Z,5.05
2022-07-29T15:30:32.448Z,4.22
2022-07-29T15:33:06.251Z,4.80
2022-07-29T15:35:40.251Z,4.80
2022-07-29T15:38:09.356Z,4.30
2022-07-29T15:40:47.354Z,4.57
2022-07-29T15:43:19.155Z,4.60
2022-07-29T15:46:11.863Z,4.95
2022-07-29T15:48:58.951Z,4.57
2022-07-29T15:51:36.186Z,4.50
2022-07-29T15:54:06.687Z,4.50
2022-07-29T15:56:37.105Z,4.43
2022-07-29T15:59:04.747Z,4.65
2022-07-29T16:01:36.929Z,5.13
2022-07-29T16:04:11.176Z,4.88
2022-07-29T16:06:38.859Z,4.88
2022-07-29T16:09:10.548Z,5.18
2022-07-29T16:11:39.352Z,4.93
2022-07-29T16:14:12.830Z,5.43
2022-07-29T16:19:13.410Z,4.95
2022-07-29T16:21:44.398Z,4.85
2022-07-29T16:24:13.471Z,4.90
2022-07-29T16:27:09.561Z,5.43
2022-07-29T16:29:46.842Z,4.40
2022-07-29T16:32:22.784Z,4.72
2022-07-29T16:34:53.072Z,4.80
2022-07-29T16:37:23.703Z,4.70
2022-07-29T16:39:52.779Z,4.47
2022-07-29T16:42:44.420Z,4.38
2022-07-29T16:45:16.189Z,4.30
2022-07-29T16:47:46.576Z,3.90
2022-07-29T16:50:17.352Z,3.83
2022-07-29T16:52:45.571Z,4.32
2022-07-29T16:55:17.321Z,4.38
2022-07-29T16:57:51.079Z,4.10
2022-07-29T17:00:26.321Z,4.05
2022-07-29T17:03:06.773Z,3.80
2022-07-29T17:05:54.226Z,3.60
2022-07-29T17:08:37.891Z,3.45
2022-07-29T17:11:17.408Z,3.42
2022-07-29T17:13:48.989Z,3.40
2022-07-29T17:16:35.336Z,3.08
2022-07-29T17:19:11.619Z,3.17
2022-07-29T17:21:46.719Z,3.58
2022-07-29T17:24:20.484Z,3.28
2022-07-29T17:26:52.911Z,3.15
2022-07-29T17:29:27.558Z,3.50
2022-07-29T17:34:46.833Z,4.35
2022-07-29T17:37:23.536Z,4.20
2022-07-29T17:40:00.566Z,4.60
2022-07-29T17:42:37.625Z,4.50
2022-07-29T17:45:11.928Z,4.63
2022-07-29T17:50:16.258Z,4.80
2022-07-29T17:52:45.348Z,4.63
2022-07-29T17:55:14.610Z,4.90
2022-07-29T17:57:44.778Z,4.47
2022-07-29T18:00:25.760Z,4.80
2022-07-29T18:03:13.464Z,4.90
2022-07-29T18:05:44.283Z,4.60
2022-07-29T18:08:13.712Z,4.82
2022-07-29T18:10:44.561Z,4.90
2022-07-29T18:13:14.077Z,4.93
2022-07-29T18:15:43.211Z,4.80
2022-07-29T18:18:11.103Z,4.70
2022-07-29T18:20:39.776Z,5.18
2022-07-29T18:23:12.552Z,5.25
2022-07-29T18:25:47.091Z,5.17
2022-07-29T18:28:15.768Z,5.43
2022-07-29T18:30:52.623Z,5.13
2022-07-29T18:33:23.184Z,5.55
2022-07-29T18:36:04.249Z,5.00
2022-07-29T18:38:43.072Z,5.00
2022-07-29T18:41:12.296Z,5.50
2022-07-29T18:43:39.980Z,5.35
2022-07-29T18:46:08.956Z,5.40
2022-07-29T18:48:36.731Z,5.95
2022-07-29T18:51:09.137Z,8.02
2022-07-29T18:53:37.714Z,7.07
2022-07-29T18:56:05.617Z,6.50
2022-07-29T18:58:33.629Z,6.75
2022-07-29T19:01:02.036Z,7.15
2022-07-29T19:03:29.369Z,6.30
2022-07-29T19:05:56.876Z,5.80
2022-07-29T19:08:24.151Z,6.45
2022-07-29T19:10:52.520Z,7.28
2022-07-29T19:13:19.862Z,7.65
2022-07-29T19:15:47.328Z,22.02
2022-07-29T19:18:14.700Z,20.85
2022-07-29T19:20:42.244Z,8.50
2022-07-29T19:23:09.667Z,6.68
2022-07-29T19:25:37.567Z,11.73
2022-07-29T19:28:21.641Z,10.00
2022-07-29T19:30:49.445Z,6.80
2022-07-29T19:33:17.761Z,7.15
2022-07-29T19:35:49.302Z,6.28
2022-07-29T19:40:46.244Z,7.25
2022-07-29T19:43:52.242Z,6.85
2022-07-29T19:46:01.288Z,6.90
2022-07-29T19:48:28.832Z,7.00
2022-07-29T19:50:56.225Z,6.97
2022-07-29T19:53:23.675Z,7.25
2022-07-29T19:55:51.139Z,6.82
2022-07-29T19:58:18.439Z,7.55
2022-07-29T20:00:49.802Z,7.45
2022-07-29T20:03:17.237Z,7.68
2022-07-29T20:05:48.023Z,7.43
2022-07-29T20:08:15.719Z,6.65
2022-07-29T20:10:43.316Z,7.28
2022-07-29T20:13:11.009Z,7.03
2022-07-29T20:15:38.527Z,7.20
2022-07-29T20:18:06.310Z,11.32
2022-07-29T20:20:33.721Z,10.52
2022-07-29T20:23:02.387Z,11.05
2022-07-29T20:25:29.824Z,7.53
2022-07-29T20:27:57.176Z,6.78
2022-07-29T20:30:24.837Z,7.05
2022-07-29T20:32:52.194Z,7.35
2022-07-29T20:35:20.191Z,7.03
2022-07-29T20:37:52.380Z,7.00
2022-07-29T20:40:24.263Z,6.95
2022-07-29T20:42:52.105Z,6.72
2022-07-29T20:45:20.194Z,7.18
2022-07-29T20:47:47.616Z,6.80
2022-07-29T20:50:15.088Z,6.63
2022-07-29T20:52:44.143Z,7.28
2022-07-29T20:55:12.149Z,7.38
2022-07-29T20:57:40.125Z,7.30
2022-07-29T21:00:09.271Z,7.32
2022-07-29T21:02:36.893Z,6.97
2022-07-29T21:05:05.529Z,7.30
2022-07-29T21:07:32.852Z,7.40
2022-07-29T21:10:00.315Z,7.97
2022-07-29T21:12:30.060Z,7.13
2022-07-29T21:14:57.933Z,7.30
2022-07-29T21:17:25.378Z,7.70
2022-07-29T21:19:53.679Z,7.57
2022-07-29T21:22:22.380Z,7.28
2022-07-29T21:24:50.855Z,7.03
2022-07-29T21:27:38.273Z,7.55
2022-07-29T21:30:08.505Z,7.80
2022-07-29T21:32:36.082Z,7.65
2022-07-29T21:35:14.501Z,7.50
2022-07-29T21:37:51.649Z,7.43
2022-07-29T21:40:19.039Z,7.93
2022-07-29T21:42:46.414Z,7.43
2022-07-29T21:45:13.994Z,7.50
2022-07-29T21:47:41.380Z,7.22
2022-07-29T21:50:09.115Z,7.60
2022-07-29T21:52:36.580Z,8.00
2022-07-29T21:55:05.169Z,7.47
2022-07-29T21:57:32.691Z,7.82
2022-07-29T22:00:02.969Z,7.68
2022-07-29T22:02:30.678Z,7.32
2022-07-29T22:04:58.052Z,7.20
2022-07-29T22:07:25.457Z,7.25
2022-07-29T22:10:12.959Z,7.05
2022-07-29T22:12:40.369Z,6.97
2022-07-29T22:15:09.008Z,7.22
2022-07-29T22:17:38.208Z,6.97
2022-07-29T22:20:06.544Z,7.68
2022-07-29T22:22:33.882Z,7.40
2022-07-29T22:25:01.180Z,7.03
2022-07-29T22:27:28.629Z,7.32
2022-07-29T22:29:55.924Z,8.15
2022-07-29T22:32:23.302Z,8.25
2022-07-29T22:34:50.659Z,7.82
2022-07-29T22:37:18.317Z,7.93
2022-07-29T22:39:45.744Z,7.60
2022-07-29T22:42:13.112Z,7.88
2022-07-29T22:44:40.439Z,7.63
2022-07-29T22:47:07.917Z,7.65
2022-07-29T22:49:35.281Z,7.90
2022-07-29T22:52:02.590Z,7.55
2022-07-29T22:54:30.240Z,7.10
2022-07-29T22:56:57.700Z,7.93
2022-07-29T22:59:25.141Z,7.00
2022-07-29T23:01:52.433Z,7.03
2022-07-29T23:04:23.748Z,7.90
2022-07-29T23:06:51.463Z,7.30
2022-07-29T23:09:19.076Z,7.32
2022-07-29T23:11:47.255Z,7.35
2022-07-29T23:14:14.622Z,7.07
2022-07-29T23:16:42.056Z,7.85
2022-07-29T23:19:09.633Z,7.63
2022-07-29T23:21:37.110Z,7.93
2022-07-29T23:24:04.656Z,7.43
2022-07-29T23:26:32.132Z,7.32
2022-07-29T23:28:59.425Z,7.28
2022-07-29T23:31:26.857Z,7.97
2022-07-29T23:33:54.196Z,7.47
2022-07-29T23:36:21.862Z,7.30
2022-07-29T23:38:49.438Z,7.20
2022-07-29T23:41:16.831Z,7.28
2022-07-29T23:43:44.285Z,7.20
2022-07-29T23:46:11.666Z,7.35
2022-07-29T23:48:39.296Z,6.93
2022-07-29T23:51:06.866Z,7.32
2022-07-29T23:53:53.451Z,7.03
2022-07-29T23:56:21.712Z,6.90
2022-07-29T23:58:49.029Z,7.47
